Time;durP1;ratioP1;P1;durP2;ratioP2;P2;SDS_P1;SDS_P2;PMS_P1;PMS_P2;Temp;Humidity;BMP_temperature;BMP_pressure;BME280_temperature;BME280_humidity;BME280_pressure;Samples;Min_cycle;Max_cycle;Signal;HPM_P1;HPM_P2
2022/06/29 00:00:56;;;;;;;1.52;1.30;;;;;;;21.02;50.89;98763.69;2618725;54;20038;-66
2022/06/29 00:03:25;;;;;;;4.32;1.67;;;;;;;20.98;50.86;98765.28;2618855;54;20038;-65
2022/06/29 00:05:55;;;;;;;3.67;2.00;;;;;;;20.94;50.39;98766.88;2618994;54;20027;-66
2022/06/29 00:08:28;;;;;;;4.38;1.40;;;;;;;20.87;50.88;98759.06;2619451;54;20571;-66
2022/06/29 00:10:58;;;;;;;3.83;2.20;;;;;;;20.83;51.39;98755.28;2618746;46;20669;-66
2022/06/29 00:13:27;;;;;;;9.07;2.05;;;;;;;20.76;51.16;98757.38;2619421;54;20081;-66
2022/06/29 00:15:57;;;;;;;2.83;1.70;;;;;;;20.76;51.15;98754.69;2619555;54;20030;-66
2022/06/29 00:18:27;;;;;;;4.10;1.85;;;;;;;20.78;51.05;98752.56;2619995;54;20029;-67
2022/06/29 00:20:57;;;;;;;2.83;2.20;;;;;;;20.80;51.20;98755.00;2619989;54;20037;-66
2022/06/29 00:23:29;;;;;;;1.83;1.63;;;;;;;20.79;51.16;98743.44;2619710;54;20041;-66
2022/06/29 00:25:59;;;;;;;1.75;1.60;;;;;;;20.71;51.59;98747.41;2618809;47;20042;-66
2022/06/29 00:28:29;;;;;;;2.58;1.60;;;;;;;20.72;51.79;98745.53;2620142;39;20445;-65
2022/06/29 00:30:59;;;;;;;3.25;1.90;;;;;;;20.70;51.64;98740.44;2618580;47;20038;-67
2022/06/29 00:33:29;;;;;;;3.08;1.50;;;;;;;20.70;51.65;98740.44;2618430;54;20069;-66
2022/06/29 00:35:58;;;;;;;5.28;1.75;;;;;;;20.67;51.73;98740.16;2619032;54;20041;-67
2022/06/29 00:38:31;;;;;;;4.00;1.65;;;;;;;20.66;51.74;98743.91;2618705;54;20041;-67
2022/06/29 00:41:00;;;;;;;3.05;1.50;;;;;;;20.61;51.47;98741.97;2618549;47;20628;-67
2022/06/29 00:43:30;;;;;;;1.58;1.48;;;;;;;20.49;51.90;98746.72;2618424;47;20034;-67
2022/06/29 00:46:00;;;;;;;3.30;1.60;;;;;;;20.49;52.28;98747.56;2619021;54;20030;-67
2022/06/29 00:48:30;;;;;;;2.78;1.67;;;;;;;20.47;52.13;98746.97;2618987;54;20565;-69
2022/06/29 00:51:03;;;;;;;2.42;1.50;;;;;;;20.43;51.11;98745.88;2618492;46;20057;-66
2022/06/29 00:53:40;;;;;;;3.13;1.65;;;;;;;20.46;51.22;98741.88;2618404;47;20022;-67
2022/06/29 00:56:12;;;;;;;1.70;1.50;;;;;;;20.48;51.11;98737.88;2618981;54;20030;-66
2022/06/29 00:58:43;;;;;;;2.63;1.50;;;;;;;20.47;51.31;98736.22;2619174;54;20057;-67
2022/06/29 01:01:15;;;;;;;4.47;1.92;;;;;;;20.44;51.68;98741.31;2619352;54;20034;-67
2022/06/29 01:03:45;;;;;;;2.53;1.83;;;;;;;20.43;51.84;98737.81;2619242;54;20026;-66
2022/06/29 01:06:15;;;;;;;2.17;1.58;;;;;;;20.47;51.80;98740.78;2619561;54;20031;-68
2022/06/29 01:08:47;;;;;;;2.05;1.75;;;;;;;20.46;51.48;98737.31;2619297;54;20031;-66
2022/06/29 01:11:17;;;;;;;3.60;1.70;;;;;;;20.47;51.48;98738.91;2618921;54;20025;-66
2022/06/29 01:13:47;;;;;;;2.97;1.80;;;;;;;20.40;52.42;98738.31;2619442;54;20034;-67
2022/06/29 01:16:16;;;;;;;3.58;1.67;;;;;;;20.40;52.26;98737.50;2619820;54;20050;-66
2022/06/29 01:18:46;;;;;;;1.55;1.45;;;;;;;20.41;52.55;98739.13;2619538;54;20035;-66
2022/06/29 01:21:16;;;;;;;2.40;1.70;;;;;;;20.44;52.63;98735.94;2619219;54;20033;-67
2022/06/29 01:23:48;;;;;;;1.50;1.40;;;;;;;20.48;53.12;98731.66;2619941;54;20029;-67
2022/06/29 01:26:18;;;;;;;3.22;1.75;;;;;;;20.45;53.19;98730.31;2619539;47;20030;-67
2022/06/29 01:28:48;;;;;;;3.13;1.63;;;;;;;20.40;53.70;98738.31;2620578;54;20653;-67
2022/06/29 01:31:19;;;;;;;2.67;1.50;;;;;;;20.40;53.52;98735.63;2620523;54;20114;-67
2022/06/29 01:33:50;;;;;;;4.45;1.98;;;;;;;20.36;54.15;98726.47;2620139;54;20034;-67
2022/06/29 01:36:20;;;;;;;1.90;1.67;;;;;;;20.29;53.69;98721.34;2620295;54;20030;-67
2022/06/29 01:38:53;;;;;;;4.20;1.90;;;;;;;20.23;53.98;98717.00;2621809;54;20026;-67
2022/06/29 01:41:22;;;;;;;2.38;1.50;;;;;;;20.22;53.58;98719.94;2621538;54;20045;-66
2022/06/29 01:43:52;;;;;;;2.22;1.67;;;;;;;20.19;53.55;98717.78;2620930;47;20033;-66
2022/06/29 01:46:22;;;;;;;3.20;1.60;;;;;;;20.17;53.63;98711.88;2621793;54;20026;-66
2022/06/29 01:48:52;;;;;;;5.32;1.95;;;;;;;20.16;53.23;98719.09;2621143;54;20045;-66
2022/06/29 01:51:21;;;;;;;2.58;1.85;;;;;;;20.17;53.16;98723.41;2621492;39;20452;-67
2022/06/29 01:53:54;;;;;;;2.60;2.00;;;;;;;20.15;53.87;98716.66;2620071;54;20048;-65
2022/06/29 01:56:23;;;;;;;3.45;1.85;;;;;;;20.12;54.26;98712.63;2620906;54;20094;-66
2022/06/29 01:58:53;;;;;;;3.60;1.67;;;;;;;20.14;54.55;98709.69;2621000;54;20038;-66
2022/06/29 02:01:23;;;;;;;2.05;1.60;;;;;;;20.13;54.52;98708.88;2619900;47;20038;-66
2022/06/29 02:03:53;;;;;;;7.10;1.90;;;;;;;20.14;54.37;98705.13;2620781;54;20546;-67
2022/06/29 02:06:24;;;;;;;3.53;2.22;;;;;;;20.13;54.47;98700.84;2619213;47;20031;-67
2022/06/29 02:08:57;;;;;;;3.53;2.08;;;;;;;20.06;55.05;98691.38;2619543;54;20039;-66
2022/06/29 02:11:26;;;;;;;5.88;1.83;;;;;;;20.04;55.25;98702.34;2619632;54;20042;-66
2022/06/29 02:13:56;;;;;;;5.15;1.95;;;;;;;20.03;55.52;98698.88;2619775;54;20026;-66
2022/06/29 02:16:27;;;;;;;3.55;1.67;;;;;;;20.03;55.45;98690.00;2619663;54;20034;-66
2022/06/29 02:18:57;;;;;;;2.58;1.70;;;;;;;20.00;55.66;98694.03;2620582;54;20029;-66
2022/06/29 02:21:27;;;;;;;4.80;1.67;;;;;;;19.97;55.61;98696.41;2620435;39;20383;-65
2022/06/29 02:23:59;;;;;;;1.98;1.70;;;;;;;19.96;55.41;98694.78;2621210;54;20047;-66
2022/06/29 02:26:29;;;;;;;4.43;1.80;;;;;;;19.88;55.09;98684.50;2619491;54;20030;-67
2022/06/29 02:28:58;;;;;;;3.42;1.77;;;;;;;19.87;55.34;98686.38;2619244;54;20042;-67
2022/06/29 02:36:53;;;;;;;1.75;1.65;;;;;;;19.89;55.42;98692.31;2618760;54;20041;-67
2022/06/29 02:39:25;;;;;;;2.40;1.55;;;;;;;19.91;54.93;98679.44;2618959;54;20038;-67
2022/06/29 02:41:55;;;;;;;2.58;1.98;;;;;;;19.93;54.99;98685.38;2620737;54;20163;-68
2022/06/29 02:44:24;;;;;;;1.85;1.60;;;;;;;19.79;54.86;98684.97;2619314;47;20038;-67
2022/06/29 02:46:54;;;;;;;2.08;1.63;;;;;;;19.70;55.21;98681.16;2618150;54;20031;-67
2022/06/29 02:49:24;;;;;;;3.58;1.70;;;;;;;19.65;55.88;98681.13;2618038;54;20037;-67
2022/06/29 02:51:54;;;;;;;2.17;1.98;;;;;;;19.64;55.96;98684.88;2617869;54;20038;-67
2022/06/29 02:54:26;;;;;;;3.25;1.60;;;;;;;19.64;55.56;98676.81;2617090;54;20038;-67
2022/06/29 02:56:56;;;;;;;3.33;1.75;;;;;;;19.63;55.50;98680.53;2617308;47;20022;-66
2022/06/29 02:59:26;;;;;;;3.47;2.08;;;;;;;19.59;56.21;98674.03;2618074;54;20107;-66
2022/06/29 03:01:56;;;;;;;4.55;1.98;;;;;;;19.58;56.51;98675.13;2620868;54;20045;-67
2022/06/29 03:04:26;;;;;;;3.75;2.00;;;;;;;19.61;56.53;98677.31;2621867;54;20047;-67
2022/06/29 03:06:56;;;;;;;6.22;2.15;;;;;;;19.58;56.52;98677.00;2621284;50;20077;-66
2022/06/29 03:09:28;;;;;;;3.22;2.13;;;;;;;19.53;56.43;98677.75;2621832;54;20042;-66
2022/06/29 03:11:58;;;;;;;5.87;2.43;;;;;;;19.46;57.05;98669.09;2621509;54;20042;-67
2022/06/29 03:14:28;;;;;;;2.45;1.60;;;;;;;19.38;57.07;98673.03;2620309;54;20042;-66
2022/06/29 03:16:57;;;;;;;3.08;1.80;;;;;;;19.33;57.55;98685.59;2617837;54;20031;-66
2022/06/29 03:19:27;;;;;;;2.67;1.67;;;;;;;19.33;57.01;98672.19;2617549;54;20167;-66
2022/06/29 03:21:57;;;;;;;3.22;2.03;;;;;;;19.28;57.35;98676.44;2617325;54;20023;-66
2022/06/29 03:24:29;;;;;;;4.65;1.98;;;;;;;19.26;57.33;98672.38;2618200;54;20031;-66
2022/06/29 03:26:59;;;;;;;6.55;2.38;;;;;;;19.23;58.09;98681.75;2617468;54;20031;-67
2022/06/29 03:29:29;;;;;;;5.32;2.75;;;;;;;19.25;58.08;98674.25;2618285;54;20547;-66
2022/06/29 03:31:58;;;;;;;4.07;1.80;;;;;;;19.25;58.04;98679.63;2621082;46;20050;-66
2022/06/29 03:34:28;;;;;;;3.45;2.10;;;;;;;19.23;57.97;98673.72;2621397;54;20034;-66
2022/06/29 03:36:58;;;;;;;3.78;1.98;;;;;;;19.23;58.38;98672.91;2620718;54;20065;-66
2022/06/29 03:39:30;;;;;;;2.63;2.15;;;;;;;19.20;58.70;98673.41;2623620;54;20030;-66
2022/06/29 03:42:00;;;;;;;4.38;1.98;;;;;;;19.17;58.52;98672.03;2623305;54;20090;-67
2022/06/29 03:44:29;;;;;;;3.67;2.00;;;;;;;19.11;59.26;98681.09;2619197;54;20026;-67
2022/06/29 03:46:59;;;;;;;3.35;2.13;;;;;;;19.10;59.56;98681.31;2618629;54;20035;-67
2022/06/29 03:49:29;;;;;;;3.90;2.20;;;;;;;19.12;59.22;98687.25;2618319;39;20431;-66
2022/06/29 03:51:58;;;;;;;3.60;2.10;;;;;;;19.15;58.68;98686.75;2617825;47;20029;-67
2022/06/29 03:54:31;;;;;;;4.57;2.05;;;;;;;19.13;59.25;98688.84;2617903;47;20023;-66
2022/06/29 03:57:00;;;;;;;2.35;2.05;;;;;;;19.08;59.19;98692.28;2618391;54;20030;-67
2022/06/29 03:59:30;;;;;;;6.63;2.20;;;;;;;19.04;59.15;98686.63;2618068;54;20038;-66
2022/06/29 04:02:00;;;;;;;2.63;2.00;;;;;;;19.02;58.53;98685.25;2590639;46;20042;-67
2022/06/29 04:04:30;;;;;;;4.53;2.55;;;;;;;19.00;59.00;98684.69;2623505;54;20022;-67
2022/06/29 04:06:59;;;;;;;3.20;1.90;;;;;;;19.00;58.73;98682.81;2622411;46;20058;-68
2022/06/29 15:13:06;;;;;;;3.35;2.65;;;;;;;29.35;36.55;98456.88;2618338;47;20038;-66
2022/06/29 15:15:35;;;;;;;4.13;2.60;;;;;;;29.10;36.81;98453.06;2617120;54;20026;-67
2022/06/29 15:18:05;;;;;;;3.83;2.88;;;;;;;29.01;37.03;98448.75;2617582;54;20037;-67
2022/06/29 15:20:35;;;;;;;4.32;2.30;;;;;;;28.81;37.10;98451.00;2617539;54;20026;-66
2022/06/29 15:23:05;;;;;;;3.00;2.70;;;;;;;28.89;37.00;98447.47;2616444;54;20034;-67
2022/06/29 15:25:34;;;;;;;3.05;2.42;;;;;;;28.84;37.13;98447.63;2617241;39;20085;-68
2022/06/29 15:28:07;;;;;;;3.83;2.38;;;;;;;28.91;36.78;98444.44;2617503;46;20082;-69
2022/06/29 15:30:42;;;;;;;4.32;2.28;;;;;;;29.39;36.09;98437.94;2618016;54;20050;-67
2022/06/29 15:33:12;;;;;;;2.95;1.90;;;;;;;29.59;35.51;98437.25;2617953;54;20034;-66
2022/06/29 15:38:49;;;;;;;3.93;2.10;;;;;;;29.28;36.15;98423.09;2618895;54;20042;-70
2022/06/29 15:41:18;;;;;;;2.95;2.15;;;;;;;29.13;36.21;98430.66;2618574;54;20038;-68
2022/06/29 15:43:51;;;;;;;4.50;2.30;;;;;;;29.53;35.50;98421.41;2618631;54;20031;-68
2022/06/29 15:46:21;;;;;;;2.50;2.30;;;;;;;29.94;35.37;98423.47;2619164;54;20034;-68
2022/06/29 15:48:51;;;;;;;2.40;2.10;;;;;;;30.30;34.81;98422.16;2620099;39;20419;-69
2022/06/29 15:51:20;;;;;;;5.70;2.30;;;;;;;30.55;34.01;98423.09;2618812;47;20023;-68
2022/06/29 15:56:32;;;;;;;5.40;2.37;;;;;;;30.77;33.79;98416.50;2620072;54;20532;-68
2022/06/29 15:59:04;;;;;;;4.63;2.20;;;;;;;30.92;32.91;98418.63;2619361;54;20283;-67
2022/06/29 16:01:34;;;;;;;3.47;2.22;;;;;;;31.07;33.12;98411.72;2619375;54;20033;-68
2022/06/29 16:04:04;;;;;;;6.43;2.42;;;;;;;31.16;32.95;98408.91;2619082;54;20031;-68
2022/06/29 16:06:34;;;;;;;4.97;2.10;;;;;;;31.28;32.77;98400.75;2618604;54;20030;-68
2022/06/29 16:09:03;;;;;;;4.40;2.45;;;;;;;31.41;32.59;98402.38;2618205;54;20585;-69
2022/06/29 16:14:18;;;;;;;4.33;2.00;;;;;;;31.48;31.28;98391.69;2617927;47;20034;-69
2022/06/29 16:16:47;;;;;;;;;;;;;;;31.46;31.76;98390.41;2619201;54;20038;-69
2022/06/29 16:19:17;;;;;;;6.78;2.30;;;;;;;31.52;31.59;98384.41;2619019;54;19985;-69
2022/06/29 16:22:06;;;;;;;3.60;2.20;;;;;;;31.50;31.25;98388.59;2620886;54;20031;-70
2022/06/29 16:24:35;;;;;;;4.25;2.17;;;;;;;31.61;31.48;98384.28;2621667;54;20030;-69
2022/06/29 16:27:07;;;;;;;2.85;1.80;;;;;;;31.71;31.51;98385.75;2620564;50;20038;-69
2022/06/29 16:29:39;;;;;;;3.83;2.30;;;;;;;31.67;31.38;98379.38;2620550;54;20038;-69
2022/06/29 16:32:10;;;;;;;3.50;2.10;;;;;;;31.66;31.18;98375.06;2621493;54;20038;-69
2022/06/29 16:34:39;;;;;;;4.63;2.17;;;;;;;31.81;30.78;98372.44;2622150;47;20031;-69
2022/06/29 16:37:09;;;;;;;5.70;2.25;;;;;;;31.94;31.18;98370.50;2623592;54;20535;-69
2022/06/29 16:39:40;;;;;;;4.63;2.00;;;;;;;32.00;30.66;98368.31;2623847;54;20039;-69
2022/06/29 16:42:10;;;;;;;2.35;1.95;;;;;;;32.13;30.50;98361.72;2622553;54;20042;-69
2022/06/29 16:44:42;;;;;;;2.40;1.80;;;;;;;32.05;30.48;98368.09;2623121;54;20022;-69
2022/06/29 16:47:12;;;;;;;3.55;2.03;;;;;;;32.29;30.32;98362.56;2623912;54;20061;-69
2022/06/29 16:49:41;;;;;;;5.85;2.08;;;;;;;31.52;31.11;98365.28;2623430;54;20027;-70
2022/06/29 16:52:11;;;;;;;4.68;2.08;;;;;;;31.54;31.21;98365.72;2622555;54;20034;-71
2022/06/29 16:54:41;;;;;;;3.70;2.08;;;;;;;31.98;30.73;98360.47;2620643;39;20426;-69
2022/06/29 16:57:10;;;;;;;6.60;3.08;;;;;;;32.26;30.56;98360.53;2618318;54;20039;-69
2022/06/29 16:59:43;;;;;;;7.18;4.18;;;;;;;32.12;30.41;98353.84;2617720;47;20023;-69
2022/06/29 17:02:13;;;;;;;5.22;2.10;;;;;;;31.40;31.38;98354.34;2617945;54;20555;-70
2022/06/29 17:04:42;;;;;;;8.15;2.60;;;;;;;31.91;30.92;98351.25;2620389;54;20030;-69
2022/06/29 17:07:12;;;;;;;4.35;1.75;;;;;;;32.02;30.07;98353.19;2618919;54;20034;-70
2022/06/29 17:09:42;;;;;;;3.70;2.05;;;;;;;32.20;29.71;98353.69;2618038;54;20027;-70
2022/06/29 17:12:12;;;;;;;7.85;2.13;;;;;;;32.48;28.66;98350.22;2616999;54;20033;-70
2022/06/29 17:14:44;;;;;;;12.10;2.00;;;;;;;32.79;28.54;98344.81;2617491;54;20026;-72
2022/06/29 17:17:14;;;;;;;7.63;1.98;;;;;;;33.15;28.30;98344.97;2617630;47;20030;-70
2022/06/29 17:19:44;;;;;;;3.90;1.70;;;;;;;33.33;27.98;98339.94;2618496;54;20042;-70
2022/06/29 17:22:13;;;;;;;5.57;1.90;;;;;;;33.67;27.49;98338.41;2618428;39;20497;-70
2022/06/29 17:24:43;;;;;;;3.67;2.20;;;;;;;33.83;27.14;98336.44;2619070;54;20137;-70
2022/06/29 17:27:13;;;;;;;7.97;3.25;;;;;;;33.94;27.02;98340.22;2618074;54;20022;-72
2022/06/29 17:29:45;;;;;;;5.25;3.75;;;;;;;34.15;26.38;98339.09;2618426;39;20480;-70
2022/06/29 17:32:14;;;;;;;;;;;;;;;34.37;26.77;98340.31;2617135;47;20043;-70
2022/06/29 17:34:45;;;;;;;4.93;3.00;;;;;;;34.57;26.05;98336.44;2617943;54;20545;-70
2022/06/29 17:37:15;;;;;;;1.58;1.40;;;;;;;34.69;26.01;98332.75;2618100;54;20519;-70
2022/06/29 17:39:44;;;;;;;2.70;2.22;;;;;;;35.01;25.48;98329.81;2617923;54;20130;-70
2022/06/29 17:42:15;;;;;;;3.33;1.85;;;;;;;34.48;26.35;98330.38;2617472;54;20038;-70
2022/06/29 17:44:48;;;;;;;3.88;1.80;;;;;;;33.37;27.23;98338.09;2617718;54;20029;-70
2022/06/29 17:47:17;;;;;;;6.20;2.03;;;;;;;33.16;27.41;98332.88;2617391;54;20033;-70
2022/06/29 17:49:47;;;;;;;4.43;1.80;;;;;;;33.87;27.05;98334.56;2617992;54;20047;-69
2022/06/29 17:52:17;;;;;;;3.90;2.40;;;;;;;34.30;26.30;98332.75;2617337;54;20030;-69
2022/06/29 17:54:47;;;;;;;2.97;1.88;;;;;;;34.43;25.82;98331.44;2617479;54;20046;-69
2022/06/29 17:57:17;;;;;;;3.47;2.50;;;;;;;34.60;25.51;98330.22;2617872;54;20086;-69
2022/06/29 17:59:49;;;;;;;2.35;2.00;;;;;;;34.80;24.79;98325.50;2617824;54;20159;-69
2022/06/29 18:02:20;;;;;;;3.10;2.53;;;;;;;35.14;24.54;98329.25;2617339;54;20180;-69
2022/06/29 18:04:50;;;;;;;3.70;2.05;;;;;;;35.01;24.59;98333.34;2617081;47;20046;-68
2022/06/29 18:07:20;;;;;;;3.67;1.77;;;;;;;35.09;24.60;98339.75;2617665;54;20063;-68
2022/06/29 18:09:50;;;;;;;2.80;2.50;;;;;;;35.14;24.54;98334.75;2618246;39;20466;-68
2022/06/29 18:12:20;;;;;;;2.47;1.55;;;;;;;34.77;24.56;98330.91;2616784;54;20022;-68
2022/06/29 18:14:52;;;;;;;4.47;1.80;;;;;;;34.24;24.71;98324.00;2617740;54;20034;-68
2022/06/29 18:17:22;;;;;;;5.65;2.85;;;;;;;33.72;25.46;98327.16;2616947;54;20031;-68
2022/06/29 18:19:51;;;;;;;7.72;5.93;;;;;;;33.08;26.22;98334.66;2617624;54;20042;-68
2022/06/29 18:22:21;;;;;;;6.28;4.70;;;;;;;32.49;27.15;98329.91;2617577;54;20042;-68
2022/06/29 18:24:51;;;;;;;5.38;2.40;;;;;;;31.89;27.69;98334.44;2617989;54;20038;-69
2022/06/29 18:27:20;;;;;;;7.43;3.72;;;;;;;31.38;28.55;98334.78;2617673;47;20031;-68
2022/06/29 18:29:53;;;;;;;4.70;2.90;;;;;;;30.78;29.42;98334.34;2618518;54;20037;-67
2022/06/29 18:32:22;;;;;;;6.57;5.88;;;;;;;30.31;30.45;98341.97;2617822;54;20026;-68
2022/06/29 18:34:52;;;;;;;3.97;1.83;;;;;;;29.93;30.79;98342.88;2618302;39;20419;-69
2022/06/29 18:37:23;;;;;;;3.03;2.30;;;;;;;29.59;31.38;98336.50;2617160;54;20030;-68
2022/06/29 18:39:52;;;;;;;5.32;2.28;;;;;;;29.30;32.34;98337.25;2617829;54;20039;-68
2022/06/29 18:42:22;;;;;;;5.75;4.82;;;;;;;29.11;32.29;98337.66;2616602;54;20030;-68
2022/06/29 18:44:54;;;;;;;4.65;2.85;;;;;;;28.94;32.88;98337.66;2618161;39;20343;-69
2022/06/29 18:47:24;;;;;;;6.15;4.35;;;;;;;28.76;33.38;98328.75;2617811;54;20038;-67
2022/06/29 18:49:54;;;;;;;5.20;3.13;;;;;;;28.61;33.69;98331.97;2617910;54;20577;-68
2022/06/29 18:52:23;;;;;;;4.75;2.42;;;;;;;28.47;34.26;98343.06;2616662;54;20022;-68
2022/06/29 18:54:53;;;;;;;2.70;2.50;;;;;;;28.37;34.74;98337.94;2617910;54;20037;-67
2022/06/29 18:57:22;;;;;;;3.30;3.00;;;;;;;28.30;34.78;98348.47;2617722;54;20035;-68
2022/06/29 18:59:55;;;;;;;7.20;2.65;;;;;;;28.20;35.41;98344.13;2617608;54;20035;-66
2022/06/29 19:02:24;;;;;;;3.45;2.78;;;;;;;28.04;35.26;98349.25;2617493;54;20041;-67
2022/06/29 19:04:54;;;;;;;10.35;2.85;;;;;;;27.92;36.07;98356.41;2618243;54;20039;-68
2022/06/29 19:07:23;;;;;;;2.17;1.98;;;;;;;27.79;36.61;98352.72;2618196;54;20026;-67
2022/06/29 19:09:53;;;;;;;6.50;5.55;;;;;;;27.68;36.96;98354.94;2618735;54;20073;-67
2022/06/29 19:12:23;;;;;;;7.50;6.18;;;;;;;27.59;36.79;98352.16;2618371;54;20034;-67
2022/06/29 19:14:55;;;;;;;6.20;4.20;;;;;;;27.53;37.28;98361.56;2618539;54;20022;-68
2022/06/29 19:17:25;;;;;;;;;;;;;;;27.49;36.99;98355.19;2618653;54;20045;-69
2022/06/29 19:19:55;;;;;;;12.45;5.65;;;;;;;27.40;38.39;98357.88;2618284;54;19954;-67
2022/06/29 19:22:25;;;;;;;7.85;4.50;;;;;;;27.34;38.66;98358.31;2617919;54;20038;-70
2022/06/29 19:24:55;;;;;;;9.55;4.32;;;;;;;27.23;39.49;98355.09;2617757;47;20034;-68
2022/06/29 19:27:24;;;;;;;8.07;3.92;;;;;;;27.07;40.65;98360.09;2618385;54;20031;-69
2022/06/29 19:29:57;;;;;;;5.22;3.40;;;;;;;26.85;41.33;98365.53;2618392;54;20030;-68
2022/06/29 19:32:26;;;;;;;7.30;3.85;;;;;;;26.56;42.25;98368.69;2617524;46;20027;-68
2022/06/29 19:34:56;;;;;;;6.35;4.00;;;;;;;26.33;43.11;98370.53;2618322;54;20035;-68
2022/06/29 19:37:25;;;;;;;5.68;3.53;;;;;;;26.12;43.72;98373.72;2617710;47;20026;-69
2022/06/29 19:39:55;;;;;;;7.50;5.55;;;;;;;26.08;43.83;98375.44;2618401;54;20038;-68
2022/06/29 19:42:25;;;;;;;12.32;7.70;;;;;;;25.99;43.88;98379.97;2617730;54;20030;-69
2022/06/29 19:44:57;;;;;;;12.48;8.93;;;;;;;25.88;44.46;98390.22;2618178;54;20033;-69
2022/06/29 19:47:27;;;;;;;9.27;6.90;;;;;;;25.83;44.48;98381.41;2618331;54;20026;-70
2022/06/29 19:49:58;;;;;;;16.40;7.68;;;;;;;25.68;44.58;98383.28;2618234;54;20031;-69
2022/06/29 19:52:28;;;;;;;8.45;6.30;;;;;;;25.53;45.08;98391.72;2617741;54;20086;-69
2022/06/29 19:54:57;;;;;;;8.02;6.35;;;;;;;25.37;46.45;98384.97;2618260;54;20046;-69
2022/06/29 19:57:27;;;;;;;8.90;5.60;;;;;;;25.20;47.45;98388.28;2618292;54;20026;-70
2022/06/29 20:00:00;;;;;;;6.50;4.00;;;;;;;25.17;48.15;98392.38;2618439;54;20029;-70
2022/06/29 20:02:29;;;;;;;4.50;4.10;;;;;;;25.18;49.36;98395.88;2618266;39;20434;-68
2022/06/29 20:04:59;;;;;;;5.60;3.75;;;;;;;25.03;49.84;98404.25;2618423;54;20031;-69
2022/06/29 20:07:29;;;;;;;6.32;3.97;;;;;;;24.92;50.30;98401.69;2618070;54;20029;-69
2022/06/29 20:09:59;;;;;;;4.00;3.60;;;;;;;24.93;51.02;98402.50;2618116;54;20046;-68
2022/06/29 20:12:28;;;;;;;3.90;3.50;;;;;;;24.78;51.13;98408.16;2617748;54;20035;-69
2022/06/29 20:15:00;;;;;;;5.07;3.90;;;;;;;24.59;52.27;98408.19;2617451;51;20542;-68
2022/06/29 20:17:30;;;;;;;5.38;3.85;;;;;;;24.45;52.60;98413.50;2618052;54;20037;-69
2022/06/29 20:19:59;;;;;;;4.45;4.05;;;;;;;24.35;53.11;98410.94;2618839;54;20022;-68
2022/06/29 20:22:30;;;;;;;5.68;3.85;;;;;;;24.25;53.76;98425.41;2619259;54;20045;-69
2022/06/29 20:24:59;;;;;;;5.30;3.97;;;;;;;24.16;53.97;98421.72;2620125;54;20033;-68
2022/06/29 20:27:29;;;;;;;5.40;3.67;;;;;;;24.09;54.03;98419.41;2621376;54;20031;-68
2022/06/29 20:30:01;;;;;;;4.97;3.53;;;;;;;24.06;54.07;98413.78;2620660;39;20482;-67
2022/06/29 20:32:31;;;;;;;6.00;4.63;;;;;;;24.05;53.88;98425.66;2617805;54;20039;-67
2022/06/29 20:35:01;;;;;;;4.53;4.13;;;;;;;24.01;54.26;98430.84;2618146;54;20030;-69
2022/06/29 20:37:30;;;;;;;6.55;4.53;;;;;;;23.92;54.74;98427.97;2618154;54;20033;-68
2022/06/29 20:40:00;;;;;;;5.13;4.18;;;;;;;23.83;55.03;98427.00;2618544;54;20031;-68
2022/06/29 20:42:30;;;;;;;5.25;4.55;;;;;;;23.76;55.49;98431.97;2621415;54;20034;-67
2022/06/29 20:47:45;;;;;;;4.80;3.97;;;;;;;23.65;55.82;98439.34;2618078;54;20045;-67
2022/06/29 20:50:15;;;;;;;5.50;4.22;;;;;;;23.59;56.09;98432.34;2618134;54;20553;-70
2022/06/29 20:52:44;;;;;;;6.03;4.00;;;;;;;23.51;56.49;98449.16;2617863;54;20550;-68
2022/06/29 20:55:14;;;;;;;5.57;4.53;;;;;;;23.40;57.01;98453.06;2618266;54;20038;-70
2022/06/29 20:57:44;;;;;;;6.80;4.32;;;;;;;23.24;57.26;98449.72;2617731;47;20034;-69
2022/06/29 21:00:19;;;;;;;4.50;4.10;;;;;;;23.13;58.07;98449.00;2618372;54;20538;-68
2022/06/29 21:02:49;;;;;;;6.25;4.63;;;;;;;23.04;58.23;98449.91;2617769;54;20023;-68
2022/06/29 21:05:20;;;;;;;4.55;3.97;;;;;;;22.98;58.40;98451.81;2618401;54;20038;-68
2022/06/29 21:07:49;;;;;;;7.05;4.25;;;;;;;22.92;58.46;98452.94;2617841;54;20027;-69
2022/06/29 21:10:19;;;;;;;6.40;4.05;;;;;;;22.83;59.15;98452.72;2621329;54;20030;-69
2022/06/29 21:12:49;;;;;;;6.43;4.03;;;;;;;22.75;59.30;98462.19;2621834;54;20029;-67
2022/06/29 21:15:21;;;;;;;5.93;4.68;;;;;;;22.66;59.77;98453.13;2623132;54;20033;-67
2022/06/29 21:17:51;;;;;;;6.63;4.40;;;;;;;22.60;59.65;98456.09;2622886;54;20029;-67
2022/06/29 21:20:41;;;;;;;6.20;4.22;;;;;;;22.51;60.50;98455.91;2624030;47;20038;-68
2022/06/29 21:23:10;;;;;;;7.38;4.78;;;;;;;22.46;60.34;98454.03;2621676;39;20420;-64
2022/06/29 21:25:40;;;;;;;4.80;4.30;;;;;;;22.47;60.16;98460.22;2619878;54;20035;-65
2022/06/29 21:28:10;;;;;;;7.88;4.25;;;;;;;22.50;60.22;98465.88;2618749;47;20022;-63
2022/06/29 21:30:42;;;;;;;6.70;4.90;;;;;;;22.59;59.79;98462.59;2617942;47;20049;-64
2022/06/29 21:33:12;;;;;;;8.68;4.72;;;;;;;22.62;59.95;98467.44;2617849;54;20114;-65
2022/06/29 21:35:42;;;;;;;5.88;4.10;;;;;;;22.59;59.67;98465.28;2618564;54;20034;-64
2022/06/29 21:38:12;;;;;;;6.40;3.78;;;;;;;22.50;59.56;98465.06;2618266;54;20040;-63
2022/06/29 21:40:41;;;;;;;6.70;4.07;;;;;;;22.42;59.80;98465.66;2618176;54;20031;-63
2022/06/29 21:43:14;;;;;;;7.03;3.97;;;;;;;22.33;60.42;98461.91;2618017;54;20023;-64
2022/06/29 21:45:46;;;;;;;7.13;4.25;;;;;;;22.25;60.14;98461.44;2618003;54;20118;-64
2022/06/29 21:51:12;;;;;;;9.50;4.32;;;;;;;22.10;60.62;98463.34;2618715;39;20431;-65
2022/06/29 21:53:45;;;;;;;4.38;3.97;;;;;;;22.06;61.00;98464.97;2618211;54;20030;-64
2022/06/29 21:56:16;;;;;;;5.90;4.50;;;;;;;22.00;61.32;98474.94;2618531;54;20038;-62
2022/06/29 21:58:45;;;;;;;4.57;4.25;;;;;;;21.85;61.82;98469.63;2618191;54;20039;-64
2022/06/29 22:01:18;;;;;;;6.38;4.47;;;;;;;21.71;61.99;98475.56;2617620;47;20030;-64
2022/06/29 22:03:49;;;;;;;9.47;5.83;;;;;;;21.64;62.61;98472.38;2617699;47;20058;-64
2022/06/29 22:06:20;;;;;;;5.72;4.47;;;;;;;21.57;62.51;98466.47;2618475;54;20038;-64
2022/06/29 22:08:50;;;;;;;9.32;5.05;;;;;;;21.58;62.68;98470.78;2619040;54;20038;-64
2022/06/29 22:11:20;;;;;;;5.78;4.35;;;;;;;21.60;62.30;98475.91;2618435;54;20090;-63
2022/06/29 22:13:50;;;;;;;6.07;4.55;;;;;;;21.56;62.60;98464.88;2618384;54;20031;-63
2022/06/29 22:16:22;;;;;;;5.13;4.60;;;;;;;21.49;62.66;98467.03;2618839;54;20593;-67
2022/06/29 22:18:55;;;;;;;7.90;4.80;;;;;;;21.43;63.07;98468.94;2620486;54;20049;-64
2022/06/29 22:21:24;;;;;;;5.15;4.25;;;;;;;21.46;63.00;98463.00;2623593;54;20034;-65
2022/06/29 22:23:54;;;;;;;7.18;4.78;;;;;;;21.41;62.99;98473.75;2620197;54;20038;-63
2022/06/29 22:26:24;;;;;;;5.85;4.78;;;;;;;21.31;63.32;98467.53;2619811;54;20572;-64
2022/06/29 22:28:54;;;;;;;6.18;4.65;;;;;;;21.26;63.45;98468.34;2619345;54;20034;-64
2022/06/29 22:31:26;;;;;;;4.78;4.28;;;;;;;21.22;63.83;98480.72;2618883;54;20034;-64
2022/06/29 22:33:56;;;;;;;5.43;4.25;;;;;;;21.21;63.52;98476.44;2619389;54;20035;-64
2022/06/29 22:36:26;;;;;;;6.32;4.13;;;;;;;21.17;63.18;98473.47;2618807;54;20026;-63
2022/06/29 22:38:55;;;;;;;5.93;4.68;;;;;;;21.09;63.99;98481.28;2619157;54;20030;-63
2022/06/29 22:41:25;;;;;;;5.82;4.53;;;;;;;21.03;63.86;98477.78;2620608;39;20422;-65
2022/06/29 22:43:55;;;;;;;5.32;4.65;;;;;;;21.05;63.54;98469.44;2619342;47;20027;-64
2022/06/29 22:46:27;;;;;;;7.40;4.35;;;;;;;21.07;63.70;98468.13;2620578;54;20038;-64
2022/06/29 22:48:57;;;;;;;4.70;3.67;;;;;;;21.10;63.80;98464.06;2619792;54;20054;-63
2022/06/29 22:51:27;;;;;;;6.05;4.25;;;;;;;21.10;63.80;98472.13;2620180;54;20034;-64
2022/06/29 22:53:57;;;;;;;4.22;3.92;;;;;;;21.11;63.53;98469.19;2619908;54;20034;-65
2022/06/29 22:56:26;;;;;;;6.63;4.25;;;;;;;21.09;63.34;98473.22;2620461;39;20323;-64
2022/06/29 22:58:57;;;;;;;5.00;4.50;;;;;;;21.07;63.79;98473.50;2619984;54;20031;-64
2022/06/29 23:01:29;;;;;;;6.70;4.85;;;;;;;20.96;63.74;98472.66;2619735;47;20038;-64
2022/06/29 23:03:59;;;;;;;6.00;4.88;;;;;;;20.84;64.79;98474.81;2619874;47;20584;-63
2022/06/29 23:06:29;;;;;;;4.68;4.13;;;;;;;20.77;64.41;98469.69;2620855;54;20026;-63
2022/06/29 23:08:58;;;;;;;8.77;4.93;;;;;;;20.67;65.23;98477.75;2620248;54;20033;-62
2022/06/29 23:14:11;;;;;;;6.07;5.47;;;;;;;20.60;65.42;98473.69;2619982;39;20414;-64